首页
METAR-TAF:

METAR-TAF

机场 :

烏迪內, 意大利

纬度: 45-59N, 经度: 013-02E, 海拔: 51米

当前天气观测

该预报发布于1小时和15分钟前的08:55 UTC
风速6节,风向东北
温度 23°C
湿度 38%
气压 1021 hPa
能见度10公里或以上
少量云层高于7000英尺
散云层高于8000英尺

METAR: LIPI 130855Z 04006KT 9999 FEW070 SCT080 23/08 Q1021 RMK SCT VIS MIN 9999 WIND THR06 08008KT WIND THR24 07008KT BLU

时间: 12:10 (10:10 UTC)

预报

该预报发布于2小时和10分钟前的08:00 UTC
预报有效从13日的 09点(UTC)到 13日的 18点(UTC)
风速5节,风向
能见度10公里或以上
少量云层高于5000英尺
散云层高于8000英尺

TAF: LIPI 130800Z 1309/1318 08005KT 9999 FEW050 SCT080

超过4000个机场的气象观测和天气预报(METAR&TAF报告)。

可查询的气象台以黄色和红色小点在地图上表示。

将鼠标移到小点上方,可查看气象台名称。

然后点击查看天气观测和预报。

如需切换地图:点击带黑十字的绿色按钮放大地图;点击带横线的绿色按钮缩小地图;或者点击绿色箭头查看邻近地区的地图。


METAR-TAF: